Time;durP1;ratioP1;P1;durP2;ratioP2;P2;SDS_P1;SDS_P2;PMS_P1;PMS_P2;Temp;Humidity;BMP_temperature;BMP_pressure;BME280_temperature;BME280_humidity;BME280_pressure;Samples;Min_cycle;Max_cycle;Signal;HPM_P1;HPM_P2
2023/07/29 00:00:55;;;;;;;4.07;2.80;;;;;;;19.97;57.98;96832.16;5088087;28;20188;-73
2023/07/29 00:03:23;;;;;;;4.43;2.93;;;;;;;19.77;58.18;96823.34;5087686;28;20288;-72
2023/07/29 00:05:50;;;;;;;5.73;2.73;;;;;;;19.44;59.46;96815.72;5087933;28;20207;-79
2023/07/29 00:08:17;;;;;;;5.40;3.10;;;;;;;19.42;59.69;96839.50;5087107;28;20195;-73
2023/07/29 00:10:44;;;;;;;3.03;2.73;;;;;;;19.37;59.73;96823.28;5070370;28;20180;-72
2023/07/29 00:13:12;;;;;;;3.00;2.70;;;;;;;19.31;60.36;96822.91;5087105;28;20196;-73
2023/07/29 00:15:39;;;;;;;4.20;2.77;;;;;;;19.48;60.00;96828.47;5088085;28;20252;-72
2023/07/29 00:18:06;;;;;;;2.80;2.50;;;;;;;19.57;59.21;96823.41;5069454;28;20207;-74
2023/07/29 00:20:34;;;;;;;4.53;2.80;;;;;;;19.60;59.13;96823.97;5088020;28;20196;-75
2023/07/29 00:23:02;;;;;;;3.10;2.70;;;;;;;19.56;59.04;96821.75;5087500;28;20226;-73
2023/07/29 00:25:29;;;;;;;5.13;3.23;;;;;;;19.37;59.14;96818.03;5087140;28;20271;-72
2023/07/29 00:27:56;;;;;;;4.20;2.93;;;;;;;19.63;59.16;96817.63;5087970;28;20192;-73
2023/07/29 00:30:25;;;;;;;4.77;2.90;;;;;;;19.58;58.81;96814.56;5086353;28;21002;-72
2023/07/29 00:32:52;;;;;;;3.80;3.00;;;;;;;19.60;59.07;96817.91;5087597;28;20188;-73
2023/07/29 00:35:19;;;;;;;3.60;2.57;;;;;;;19.23;59.72;96767.59;5087084;28;20193;-74
2023/07/29 00:37:46;;;;;;;3.50;2.60;;;;;;;19.57;59.29;96815.50;5069300;28;20192;-74
2023/07/29 00:40:22;;;;;;;3.60;2.70;;;;;;;19.47;58.83;96807.59;5069264;28;20678;-76
2023/07/29 00:42:50;;;;;;;3.67;2.97;;;;;;;19.40;58.65;96817.78;5086693;28;20214;-73
2023/07/29 00:45:18;;;;;;;4.43;3.10;;;;;;;19.23;58.50;96805.19;5069410;28;20195;-77
2023/07/29 00:47:45;;;;;;;5.37;3.00;;;;;;;19.18;58.70;96804.75;5086841;28;20187;-80
2023/07/29 00:50:14;;;;;;;3.70;2.80;;;;;;;18.91;58.58;96793.94;5087528;28;20244;-74
2023/07/29 00:52:41;;;;;;;3.40;2.87;;;;;;;19.15;58.09;96802.38;5068840;28;20236;-76
2023/07/29 00:55:09;;;;;;;4.73;2.70;;;;;;;19.23;57.30;96799.94;5069142;28;20184;-77
2023/07/29 00:57:36;;;;;;;5.23;2.73;;;;;;;19.03;57.78;96806.03;5087137;28;20187;-73
2023/07/29 01:00:05;;;;;;;3.97;2.57;;;;;;;18.91;58.10;96804.44;5086486;28;20210;-75
2023/07/29 01:02:34;;;;;;;3.70;2.80;;;;;;;18.72;58.63;96791.16;5069455;28;20194;-77
2023/07/29 01:05:02;;;;;;;4.20;2.60;;;;;;;18.71;58.52;96789.50;5051394;28;20649;-75
2023/07/29 01:07:38;;;;;;;3.77;2.70;;;;;;;18.76;58.19;96800.44;5087244;28;20281;-79
2023/07/29 01:10:28;;;;;;;5.47;2.90;;;;;;;18.76;58.01;96784.69;5086759;28;20246;-76
2023/07/29 01:12:58;;;;;;;4.30;2.73;;;;;;;18.70;58.19;96795.69;5086643;28;20183;-77
2023/07/29 01:15:50;;;;;;;4.40;3.00;;;;;;;18.71;57.74;96800.00;5087906;28;20218;-79
2023/07/29 01:18:28;;;;;;;4.33;2.80;;;;;;;18.98;57.50;96805.56;5068998;28;20186;-76
2023/07/29 01:20:59;;;;;;;4.87;2.80;;;;;;;19.13;56.83;96799.06;5069994;28;20256;-76
2023/07/29 01:23:31;;;;;;;3.97;2.80;;;;;;;19.21;57.04;96804.50;5068680;28;20726;-76
2023/07/29 01:25:58;;;;;;;3.63;2.77;;;;;;;18.98;58.12;96774.06;5068496;28;20195;-72
2023/07/29 01:28:27;;;;;;;3.67;2.50;;;;;;;18.68;58.64;96787.13;5069113;28;20188;-76
2023/07/29 01:31:12;;;;;;;5.13;2.70;;;;;;;18.71;58.56;96788.66;5068274;28;20190;-82
2023/07/29 01:33:45;;;;;;;4.33;2.90;;;;;;;18.77;58.15;96790.78;5087679;28;20188;-75
2023/07/29 01:36:18;;;;;;;3.13;2.50;;;;;;;18.72;58.25;96788.53;5087521;28;20279;-74
2023/07/29 01:38:47;;;;;;;3.23;2.77;;;;;;;18.98;57.22;96789.00;5068768;28;20190;-75
2023/07/29 01:41:16;;;;;;;4.00;2.90;;;;;;;19.30;56.98;96793.22;5069876;28;20191;-83
2023/07/29 01:43:46;;;;;;;3.00;2.70;;;;;;;19.47;56.85;96808.41;5090795;28;20227;-75
2023/07/29 01:46:14;;;;;;;5.60;2.70;;;;;;;19.44;56.31;96813.94;5091770;28;20204;-79
2023/07/29 01:48:42;;;;;;;3.87;2.60;;;;;;;19.23;57.28;96818.31;5090289;28;20679;-73
2023/07/29 01:51:11;;;;;;;5.20;3.13;;;;;;;19.13;57.45;96820.06;5072291;28;20248;-77
2023/07/29 01:53:39;;;;;;;4.87;3.17;;;;;;;18.98;58.14;96823.13;5072266;28;20305;-80
2023/07/29 01:56:06;;;;;;;3.97;3.37;;;;;;;18.80;58.14;96816.75;5090100;28;20187;-76
2023/07/29 01:58:35;;;;;;;7.80;3.30;;;;;;;18.55;58.84;96823.16;5039634;28;20286;-76
2023/07/29 02:01:02;;;;;;;3.80;3.00;;;;;;;18.39;59.45;96822.69;5089763;28;20290;-75
2023/07/29 02:03:29;;;;;;;3.80;2.70;;;;;;;18.04;59.11;96769.63;5072413;28;20221;-73
2023/07/29 02:05:57;;;;;;;8.83;2.67;;;;;;;18.25;59.40;96807.25;5071769;28;20240;-74
2023/07/29 02:08:24;;;;;;;3.83;3.10;;;;;;;17.91;60.41;96813.50;5089941;28;20689;-77
2023/07/29 02:10:51;;;;;;;3.60;3.00;;;;;;;17.51;62.28;96816.59;5072079;28;20678;-79
2023/07/29 02:13:18;;;;;;;4.80;3.20;;;;;;;17.39;62.26;96812.28;5089691;28;20197;-76
2023/07/29 02:15:45;;;;;;;4.77;2.83;;;;;;;17.50;62.91;96814.06;5090343;28;20281;-74
2023/07/29 02:18:13;;;;;;;3.50;3.20;;;;;;;17.66;62.48;96820.63;5071380;28;20214;-74
2023/07/29 02:20:40;;;;;;;4.70;3.00;;;;;;;17.75;62.21;96822.56;5090368;28;20196;-76
2023/07/29 02:23:07;;;;;;;4.73;2.90;;;;;;;17.66;62.56;96827.69;5071125;28;20689;-72
2023/07/29 02:25:36;;;;;;;5.17;3.50;;;;;;;17.55;63.33;96819.81;5071800;28;20591;-72
2023/07/29 02:28:04;;;;;;;4.47;3.43;;;;;;;17.79;62.96;96818.75;5089626;28;20281;-78
2023/07/29 02:30:31;;;;;;;3.30;3.00;;;;;;;17.77;62.25;96825.03;5054052;28;20241;-72
2023/07/29 02:32:59;;;;;;;3.10;2.80;;;;;;;17.61;62.34;96820.16;5071807;28;20891;-82
2023/07/29 02:35:27;;;;;;;3.73;3.30;;;;;;;17.70;62.15;96822.06;5071273;28;20576;-71
2023/07/29 02:37:55;;;;;;;6.20;3.47;;;;;;;17.84;62.10;96829.72;5071820;28;20186;-75
2023/07/29 02:40:22;;;;;;;5.07;3.17;;;;;;;17.79;62.69;96818.75;5071148;28;20182;-72
2023/07/29 02:42:50;;;;;;;3.13;2.83;;;;;;;17.62;63.22;96823.63;5071676;28;20298;-72
2023/07/29 02:45:17;;;;;;;5.20;3.47;;;;;;;17.63;62.75;96828.75;5071006;28;20321;-73
2023/07/29 02:47:44;;;;;;;4.60;3.03;;;;;;;17.65;62.51;96831.22;5070902;28;20202;-73
2023/07/29 02:50:12;;;;;;;3.97;2.60;;;;;;;17.81;61.63;96822.06;5071504;28;20194;-77
2023/07/29 02:52:39;;;;;;;6.33;3.40;;;;;;;17.85;61.72;96820.88;5070170;28;20195;-73
2023/07/29 02:55:06;;;;;;;4.30;2.90;;;;;;;17.71;61.91;96821.13;5071503;28;20196;-75
2023/07/29 02:57:34;;;;;;;4.37;3.00;;;;;;;17.80;61.52;96811.72;5070655;28;20221;-78
2023/07/29 03:00:01;;;;;;;5.37;3.23;;;;;;;17.81;61.16;96816.00;5089147;28;20252;-74
2023/07/29 03:02:30;;;;;;;4.93;3.17;;;;;;;17.71;61.02;96828.13;5054173;28;20198;-77
2023/07/29 03:04:57;;;;;;;4.70;3.23;;;;;;;17.52;61.17;96820.03;5070725;28;20219;-77
2023/07/29 03:07:24;;;;;;;3.33;2.60;;;;;;;17.36;61.69;96829.97;5071116;28;20185;-76
2023/07/29 03:09:51;;;;;;;5.03;3.20;;;;;;;17.46;60.94;96804.75;5070181;28;20234;-76
2023/07/29 03:12:18;;;;;;;4.00;3.23;;;;;;;17.48;61.17;96824.63;5054533;28;21174;-79
2023/07/29 03:14:48;;;;;;;5.70;3.00;;;;;;;17.21;61.38;96805.78;5070378;28;20244;-75
2023/07/29 03:17:15;;;;;;;3.67;3.03;;;;;;;17.00;62.28;96836.22;5071076;28;20255;-79
2023/07/29 03:19:43;;;;;;;3.63;2.87;;;;;;;17.15;61.88;96835.03;5088501;28;20187;-80
2023/07/29 03:22:10;;;;;;;3.23;2.73;;;;;;;17.22;61.94;96825.78;5088569;28;20566;-79
2023/07/29 03:24:37;;;;;;;3.53;2.73;;;;;;;17.01;61.83;96799.47;5088565;28;20221;-77
2023/07/29 03:27:05;;;;;;;3.73;3.33;;;;;;;17.02;62.61;96821.22;5053469;28;20269;-73
2023/07/29 03:29:32;;;;;;;4.43;3.60;;;;;;;16.87;62.83;96820.59;5071231;28;20594;-73
2023/07/29 03:32:00;;;;;;;4.57;3.50;;;;;;;16.89;63.33;96829.16;5070206;28;20213;-74
2023/07/29 03:34:27;;;;;;;3.50;2.97;;;;;;;16.95;63.61;96831.31;5070692;28;20185;-79
2023/07/29 03:36:55;;;;;;;4.20;2.97;;;;;;;16.96;63.69;96834.78;5053897;28;20203;-73
2023/07/29 03:39:24;;;;;;;4.37;3.13;;;;;;;17.02;64.00;96834.31;5070766;28;20201;-74
2023/07/29 03:41:52;;;;;;;4.83;3.40;;;;;;;17.55;62.47;96836.34;5071614;28;20200;-73
2023/07/29 03:44:20;;;;;;;4.27;3.10;;;;;;;17.83;61.02;96835.03;5070145;28;20609;-71
2023/07/29 03:46:47;;;;;;;4.10;3.17;;;;;;;17.97;60.97;96847.09;5070506;28;20531;-79
2023/07/29 03:49:14;;;;;;;4.23;3.30;;;;;;;18.13;59.77;96837.91;5052933;28;20202;-72
2023/07/29 03:51:42;;;;;;;6.73;3.27;;;;;;;18.36;58.45;96838.69;5070208;28;20232;-72
2023/07/29 03:54:11;;;;;;;4.83;3.07;;;;;;;18.45;58.37;96853.72;5070370;28;20270;-71
2023/07/29 03:56:39;;;;;;;5.43;3.27;;;;;;;18.50;59.46;96848.94;5071019;28;20189;-72
2023/07/29 03:59:09;;;;;;;4.30;3.07;;;;;;;18.28;60.13;96847.16;5054092;28;20195;-73
2023/07/29 04:01:37;;;;;;;5.87;3.00;;;;;;;18.39;59.71;96834.03;5069970;28;20271;-79
2023/07/29 04:04:05;;;;;;;4.40;2.57;;;;;;;18.88;58.17;96849.28;5070623;28;20221;-73
2023/07/29 04:06:33;;;;;;;3.57;3.27;;;;;;;18.98;57.11;96852.81;5053484;28;20205;-80
2023/07/29 04:09:02;;;;;;;3.87;3.00;;;;;;;18.79;57.45;96850.06;5088598;28;20280;-72
2023/07/29 04:11:30;;;;;;;4.33;3.20;;;;;;;18.86;57.30;96847.72;5070334;28;20614;-72
2023/07/29 04:13:57;;;;;;;5.17;2.97;;;;;;;18.59;57.89;96861.31;5070674;28;20205;-75
2023/07/29 04:16:26;;;;;;;4.10;3.37;;;;;;;18.75;57.63;96860.91;5071188;28;20256;-75
2023/07/29 04:18:54;;;;;;;4.50;3.20;;;;;;;18.98;57.08;96852.81;5088371;28;20192;-74
2023/07/29 04:21:28;;;;;;;4.40;3.47;;;;;;;19.26;56.40;96862.72;5071430;28;20196;-73
2023/07/29 04:23:55;;;;;;;3.53;3.00;;;;;;;19.26;55.98;96862.72;5069635;28;20283;-80
2023/07/29 04:26:25;;;;;;;5.50;3.80;;;;;;;19.47;54.71;96858.31;5070135;28;20249;-77
2023/07/29 04:28:54;;;;;;;3.87;3.43;;;;;;;19.98;53.78;96860.09;5068906;28;20199;-72
2023/07/29 04:31:21;;;;;;;4.80;3.37;;;;;;;20.61;52.12;96848.44;5060240;28;20650;-76
2023/07/29 04:33:49;;;;;;;5.13;3.07;;;;;;;20.87;51.03;96850.41;5068033;28;20211;-78
2023/07/29 04:36:18;;;;;;;5.27;2.80;;;;;;;20.88;51.32;96862.59;5049159;28;20260;-73
2023/07/29 04:38:48;;;;;;;3.63;3.20;;;;;;;20.58;51.98;96870.59;5050090;28;20203;-80
2023/07/29 04:41:16;;;;;;;4.90;3.10;;;;;;;20.18;52.85;96864.47;5048830;28;20252;-74
2023/07/29 04:43:44;;;;;;;3.90;2.73;;;;;;;20.94;51.36;96863.81;5049681;28;20190;-77
2023/07/29 04:46:12;;;;;;;3.83;3.10;;;;;;;21.23;50.91;96866.47;5057916;28;20185;-74
2023/07/29 04:48:40;;;;;;;3.73;2.70;;;;;;;21.40;49.82;96861.34;5049327;28;20684;-83
2023/07/29 04:51:07;;;;;;;4.37;3.30;;;;;;;21.45;49.40;96853.84;5088184;28;20630;-78
2023/07/29 04:53:36;;;;;;;3.60;2.97;;;;;;;21.43;49.85;96862.88;5086026;28;20199;-83
2023/07/29 04:56:03;;;;;;;3.93;2.90;;;;;;;21.15;50.50;96858.44;5069445;28;20245;-82
2023/07/29 04:58:34;;;;;;;5.17;2.73;;;;;;;21.28;50.66;96867.75;5086459;28;20226;-77
2023/07/29 05:01:03;;;;;;;3.00;2.70;;;;;;;21.16;51.18;96868.03;5087049;28;20880;-76
2023/07/29 05:03:30;;;;;;;3.30;2.60;;;;;;;21.11;51.18;96863.16;5069010;28;20194;-75
2023/07/29 05:05:59;;;;;;;3.73;2.70;;;;;;;20.83;52.03;96867.44;5068564;28;20614;-74
2023/07/29 05:08:27;;;;;;;3.77;3.03;;;;;;;21.14;51.42;96856.81;5069039;28;20223;-78
2023/07/29 05:10:55;;;;;;;3.67;3.07;;;;;;;21.62;50.65;96868.94;5087356;28;20196;-79
2023/07/29 05:13:27;;;;;;;4.10;2.90;;;;;;;22.10;49.58;96878.53;5054622;28;20205;-74
2023/07/29 05:15:56;;;;;;;3.57;2.53;;;;;;;22.05;49.95;96878.97;5038128;28;20770;-73
2023/07/29 05:18:24;;;;;;;6.17;3.30;;;;;;;22.12;49.49;96885.34;5059513;28;20195;-79
2023/07/29 05:20:51;;;;;;;3.40;2.50;;;;;;;22.40;47.97;96868.53;5076849;28;20187;-75
2023/07/29 05:23:19;;;;;;;3.70;2.63;;;;;;;22.17;49.15;96866.44;5075398;28;20257;-74
2023/07/29 05:25:46;;;;;;;3.23;2.73;;;;;;;22.26;49.20;96892.78;5057475;28;20237;-75
2023/07/29 05:28:15;;;;;;;4.30;2.93;;;;;;;22.19;49.14;96882.97;5063983;28;20208;-76
2023/07/29 05:30:44;;;;;;;4.00;3.10;;;;;;;22.51;48.44;96889.47;5075774;28;20202;-76
2023/07/29 05:33:11;;;;;;;3.43;2.70;;;;;;;22.09;49.55;96888.25;5084058;28;20547;-75
2023/07/29 05:35:39;;;;;;;6.77;3.97;;;;;;;22.57;47.95;96893.31;5074070;28;20712;-77
2023/07/29 05:38:08;;;;;;;4.10;3.03;;;;;;;23.14;47.07;96892.16;5056347;28;20178;-75
2023/07/29 05:40:35;;;;;;;3.23;2.93;;;;;;;23.68;46.46;96897.25;5067413;28;20195;-72
2023/07/29 05:43:05;;;;;;;5.20;2.87;;;;;;;23.76;45.47;96899.94;5057325;28;20277;-75
2023/07/29 05:45:48;;;;;;;4.30;3.20;;;;;;;24.05;44.24;96891.75;5039873;28;20228;-73
2023/07/29 05:48:15;;;;;;;4.00;3.27;;;;;;;24.06;44.48;96907.47;5063947;28;20197;-73
2023/07/29 05:50:42;;;;;;;4.67;2.97;;;;;;;23.93;44.60;96907.03;5073928;28;20620;-72
2023/07/29 05:53:09;;;;;;;4.50;3.57;;;;;;;24.36;44.19;96894.72;5074717;28;20191;-73
2023/07/29 05:55:36;;;;;;;8.10;3.40;;;;;;;24.63;43.14;96907.72;5074524;28;20231;-80
2023/07/29 05:58:04;;;;;;;3.33;2.93;;;;;;;24.97;43.06;96908.56;5074340;28;20916;-81
2023/07/29 06:00:31;;;;;;;3.17;2.67;;;;;;;24.95;42.66;96913.19;5074366;28;20211;-79
2023/07/29 06:02:59;;;;;;;3.53;2.90;;;;;;;24.80;42.32;96912.97;5074305;28;20701;-79
2023/07/29 06:05:27;;;;;;;4.43;3.70;;;;;;;25.04;43.01;96912.19;5074871;28;20641;-79
2023/07/29 06:07:54;;;;;;;3.83;3.20;;;;;;;25.19;42.35;96907.94;5074462;28;20231;-76
2023/07/29 06:10:22;;;;;;;4.57;3.13;;;;;;;25.36;41.56;96903.47;5074867;28;20227;-73
2023/07/29 06:12:49;;;;;;;3.60;2.77;;;;;;;25.33;40.87;96899.31;5092336;28;20684;-72
2023/07/29 06:15:16;;;;;;;5.33;3.50;;;;;;;25.61;41.04;96898.06;5074301;28;20214;-80
2023/07/29 06:17:43;;;;;;;6.00;3.27;;;;;;;25.75;41.23;96896.53;5073247;28;20197;-72
2023/07/29 06:20:11;;;;;;;7.07;4.23;;;;;;;25.95;39.71;96889.03;5057035;28;20200;-76
2023/07/29 06:22:38;;;;;;;5.50;3.13;;;;;;;25.98;39.69;96909.94;5069139;28;20691;-83
2023/07/29 06:25:06;;;;;;;4.80;2.90;;;;;;;26.23;40.01;96900.97;5037875;28;20225;-75
2023/07/29 06:27:33;;;;;;;4.10;2.87;;;;;;;26.24;39.07;96892.00;5071547;28;20733;-76
2023/07/29 06:30:01;;;;;;;5.80;3.50;;;;;;;26.06;38.11;96894.00;5050715;28;20596;-77
2023/07/29 06:32:30;;;;;;;4.47;3.20;;;;;;;25.67;39.21;96889.44;5050144;28;20277;-76
2023/07/29 06:34:57;;;;;;;3.00;2.63;;;;;;;25.65;38.46;96894.06;5050995;28;20692;-77
2023/07/29 06:37:24;;;;;;;4.07;2.57;;;;;;;25.85;38.50;96883.91;5068368;28;20212;-77
2023/07/29 06:39:51;;;;;;;4.47;2.80;;;;;;;26.24;38.51;96884.84;5069458;28;20455;-72
2023/07/29 06:42:18;;;;;;;4.37;2.80;;;;;;;26.38;37.14;96883.31;5050872;28;20375;-75
2023/07/29 06:44:46;;;;;;;4.43;2.83;;;;;;;26.67;37.24;96878.22;5069335;28;20225;-72
2023/07/29 06:47:13;;;;;;;4.47;3.00;;;;;;;26.70;36.76;96880.53;5033998;28;20224;-76
2023/07/29 06:49:41;;;;;;;4.07;2.67;;;;;;;26.43;36.30;96884.47;5069800;28;20197;-75
2023/07/29 06:52:08;;;;;;;5.70;3.10;;;;;;;26.38;36.91;96870.03;5069252;28;20749;-72
2023/07/29 06:54:36;;;;;;;3.83;2.87;;;;;;;26.36;37.62;96866.72;5053051;28;20200;-79
2023/07/29 06:57:03;;;;;;;4.43;3.03;;;;;;;26.41;38.30;96870.53;5069297;28;20193;-75
2023/07/29 06:59:30;;;;;;;6.63;3.80;;;;;;;26.63;36.77;96866.28;5086509;28;20191;-74
2023/07/29 07:01:59;;;;;;;4.50;3.50;;;;;;;26.92;35.55;96874.44;5070522;28;20264;-76
2023/07/29 07:04:27;;;;;;;8.03;4.87;;;;;;;26.81;35.49;96861.56;5054905;28;20196;-73
2023/07/29 07:06:55;;;;;;;4.50;3.33;;;;;;;26.90;36.35;96871.16;5088411;28;20196;-74
2023/07/29 07:09:24;;;;;;;16.93;12.27;;;;;;;27.07;35.74;96862.06;5055185;28;20787;-83
2023/07/29 07:11:52;;;;;;;4.40;3.47;;;;;;;27.01;35.53;96859.28;5087817;28;20193;-78
2023/07/29 07:14:20;;;;;;;4.97;3.20;;;;;;;27.24;35.35;96863.59;5070462;28;20181;-79
2023/07/29 07:16:48;;;;;;;4.73;3.60;;;;;;;26.98;35.20;96839.19;5070265;28;20716;-73
2023/07/29 07:19:16;;;;;;;7.17;3.33;;;;;;;27.12;35.76;96867.66;5053911;28;20192;-78
2023/07/29 07:21:43;;;;;;;3.67;2.50;;;;;;;27.16;36.37;96862.84;5052893;28;20290;-77
2023/07/29 07:24:10;;;;;;;8.03;3.50;;;;;;;27.35;35.25;96859.72;5088452;28;20193;-76
2023/07/29 07:26:38;;;;;;;8.87;4.67;;;;;;;27.67;36.03;96862.13;5069271;28;20228;-82
2023/07/29 07:29:05;;;;;;;5.47;4.40;;;;;;;27.75;35.58;96867.38;5087236;28;20204;-77
2023/07/29 07:31:34;;;;;;;8.67;4.80;;;;;;;27.67;34.93;96869.28;5069310;28;20197;-79
2023/07/29 07:34:02;;;;;;;6.37;3.70;;;;;;;27.72;35.39;96867.72;5069142;28;20269;-74
2023/07/29 07:36:30;;;;;;;5.70;3.20;;;;;;;27.98;35.72;96870.00;5088681;28;20193;-73
2023/07/29 07:38:59;;;;;;;4.10;2.83;;;;;;;27.65;35.45;96850.00;5068228;28;20611;-76
2023/07/29 07:41:27;;;;;;;3.83;3.43;;;;;;;27.66;35.33;96859.63;5069087;28;20228;-81
2023/07/29 07:43:54;;;;;;;4.97;3.83;;;;;;;27.80;35.52;96853.53;5087795;28;20177;-75
2023/07/29 07:46:21;;;;;;;4.67;3.67;;;;;;;28.03;35.73;96852.47;5087251;28;20220;-73
2023/07/29 07:48:48;;;;;;;4.70;2.93;;;;;;;28.03;35.14;96820.50;5087915;28;20694;-78
2023/07/29 07:51:15;;;;;;;4.63;3.93;;;;;;;28.21;35.62;96830.81;5087365;28;20227;-76
2023/07/29 07:53:42;;;;;;;11.60;4.97;;;;;;;28.48;35.62;96850.63;5087937;28;20246;-79
2023/07/29 07:56:10;;;;;;;5.80;3.57;;;;;;;28.68;35.14;96855.22;5069025;28;20207;-81
2023/07/29 07:58:38;;;;;;;5.27;3.33;;;;;;;28.73;34.66;96846.66;5070647;28;20192;-81
2023/07/29 08:01:07;;;;;;;4.97;3.30;;;;;;;28.80;34.76;96848.41;5070275;28;20200;-82
2023/07/29 08:03:36;;;;;;;5.83;3.50;;;;;;;28.79;34.96;96846.72;5070189;28;20214;-82
2023/07/29 08:06:05;;;;;;;10.83;3.90;;;;;;;28.81;34.40;96842.03;5070689;28;20212;-87
2023/07/29 08:09:32;;;;;;;6.97;4.30;;;;;;;29.06;34.66;96847.03;5084875;28;20281;-76
2023/07/29 08:12:53;;;;;;;4.17;3.27;;;;;;;29.22;33.70;96847.66;5068224;28;20261;-78
2023/07/29 08:16:14;;;;;;;6.90;4.07;;;;;;;29.15;33.91;96832.56;5086387;28;20603;-76
2023/07/29 08:19:35;;;;;;;4.50;3.43;;;;;;;28.78;33.87;96833.59;5067905;28;20648;-77
2023/07/29 08:22:56;;;;;;;6.83;4.00;;;;;;;28.55;34.94;96833.72;5033071;28;20189;-75
2023/07/29 08:26:17;;;;;;;4.50;3.30;;;;;;;28.66;35.06;96787.94;5065558;28;20233;-77
2023/07/29 08:29:25;;;;;;;5.30;3.33;;;;;;;28.76;34.86;96823.13;5066462;28;20189;-77
2023/07/29 08:31:53;;;;;;;6.67;3.50;;;;;;;28.77;34.77;96806.09;5049047;28;20185;-77
2023/07/29 08:34:20;;;;;;;6.23;3.87;;;;;;;29.16;34.45;96827.03;5061541;28;20199;-81
2023/07/29 08:36:47;;;;;;;8.00;4.30;;;;;;;28.88;34.36;96829.63;5069102;28;20234;-77
2023/07/29 08:39:54;;;;;;;4.43;3.20;;;;;;;29.19;33.95;96829.34;5068072;28;20195;-77
2023/07/29 08:43:15;;;;;;;5.80;4.10;;;;;;;29.25;33.94;96819.75;5084754;28;20224;-75
2023/07/29 08:46:36;;;;;;;5.93;3.77;;;;;;;29.44;33.51;96821.75;5066831;28;20223;-76
2023/07/29 08:49:57;;;;;;;6.00;3.80;;;;;;;29.56;33.53;96806.88;5085454;28;20238;-75
2023/07/29 08:53:17;;;;;;;5.20;4.30;;;;;;;29.64;33.21;96814.72;5084484;28;20199;-75
2023/07/29 08:56:38;;;;;;;4.47;3.73;;;;;;;29.56;33.24;96804.19;5084196;28;20231;-75
2023/07/29 08:59:59;;;;;;;5.53;4.07;;;;;;;29.46;32.44;96785.88;5085351;28;20193;-75
2023/07/29 09:03:19;;;;;;;8.47;3.67;;;;;;;29.53;32.88;96808.06;5067533;28;20273;-76
2023/07/29 09:06:40;;;;;;;9.43;3.97;;;;;;;29.62;33.55;96784.75;5069372;28;20244;-75
2023/07/29 09:10:01;;;;;;;6.73;4.77;;;;;;;29.51;32.83;96801.31;5049621;28;20224;-76
2023/07/29 09:13:22;;;;;;;5.07;3.50;;;;;;;29.29;32.98;96792.50;5084746;28;20694;-74
2023/07/29 09:15:56;;;;;;;7.20;3.93;;;;;;;29.33;33.44;96777.75;5066115;28;20192;-74
2023/07/29 09:18:27;;;;;;;5.73;3.50;;;;;;;29.49;33.05;96784.66;5066891;28;20586;-74
2023/07/29 09:21:02;;;;;;;3.90;3.00;;;;;;;29.75;33.28;96782.19;5066905;28;20591;-77
2023/07/29 09:23:41;;;;;;;3.87;2.60;;;;;;;29.42;33.10;96783.78;5052309;28;20297;-74
2023/07/29 09:26:08;;;;;;;7.47;4.17;;;;;;;29.68;33.82;96783.97;5067228;28;20273;-78
2023/07/29 09:28:38;;;;;;;6.77;4.00;;;;;;;30.03;33.59;96782.16;5047780;28;20265;-75
2023/07/29 09:31:05;;;;;;;4.93;2.87;;;;;;;30.11;32.58;96782.81;5065390;28;20680;-74
2023/07/29 09:33:37;;;;;;;4.20;3.20;;;;;;;30.22;32.59;96776.91;5047507;28;20232;-73
2023/07/29 09:36:09;;;;;;;5.70;4.33;;;;;;;30.29;33.39;96775.16;5065285;28;20189;-77
2023/07/29 09:38:36;;;;;;;6.20;4.37;;;;;;;30.37;31.97;96758.09;5066568;28;20243;-78
2023/07/29 09:41:04;;;;;;;10.60;4.67;;;;;;;30.46;31.88;96773.75;5049288;28;20185;-74
2023/07/29 09:43:35;;;;;;;5.70;4.43;;;;;;;30.36;32.70;96765.28;5065061;28;20676;-75
2023/07/29 09:46:07;;;;;;;4.10;3.37;;;;;;;30.45;32.12;96764.09;5047819;28;20221;-75
2023/07/29 09:48:36;;;;;;;6.13;2.80;;;;;;;30.64;32.12;96775.88;5032100;28;20194;-81
2023/07/29 09:51:14;;;;;;;4.63;2.93;;;;;;;30.65;31.57;96772.16;5047711;28;20185;-79
2023/07/29 09:53:47;;;;;;;4.87;2.87;;;;;;;30.24;32.17;96758.84;5065800;28;20200;-78
2023/07/29 09:56:15;;;;;;;5.10;3.20;;;;;;;30.34;32.83;96759.31;5065242;28;20232;-79
2023/07/29 09:58:47;;;;;;;2.30;2.07;;;;;;;30.48;31.85;96771.72;5047545;28;20200;-78
2023/07/29 10:01:14;;;;;;;2.67;2.23;;;;;;;30.13;33.20;96764.75;5046723;28;20216;-76
2023/07/29 10:03:43;;;;;;;4.57;3.17;;;;;;;29.90;32.83;96761.56;5068257;28;20268;-77
2023/07/29 10:06:13;;;;;;;4.60;3.47;;;;;;;29.69;33.04;96748.25;5035013;28;20325;-76
2023/07/29 10:08:41;;;;;;;4.20;2.97;;;;;;;30.20;33.14;96757.59;5051592;28;20734;-76
2023/07/29 10:11:13;;;;;;;6.27;2.90;;;;;;;30.15;33.16;96745.88;5070439;28;20546;-79
2023/07/29 10:13:45;;;;;;;2.60;2.40;;;;;;;30.28;32.93;96754.75;5069221;28;20588;-75
2023/07/29 10:16:37;;;;;;;4.07;3.33;;;;;;;30.59;32.14;96750.75;5069204;28;20280;-76
2023/07/29 10:19:07;;;;;;;4.00;3.03;;;;;;;30.27;32.57;96739.75;5069084;28;20185;-76
2023/07/29 10:21:38;;;;;;;3.90;3.27;;;;;;;30.28;32.00;96738.72;5051239;28;20197;-76
2023/07/29 10:24:14;;;;;;;3.07;2.73;;;;;;;30.19;32.93;96739.91;5069785;28;20640;-82
2023/07/29 10:26:45;;;;;;;4.83;3.23;;;;;;;30.39;32.19;96743.53;5050003;28;20658;-76
2023/07/29 10:29:18;;;;;;;4.53;3.17;;;;;;;30.52;31.99;96743.53;5069537;28;20193;-77
2023/07/29 10:31:46;;;;;;;5.97;3.17;;;;;;;30.31;32.30;96737.53;5050768;28;20201;-76
2023/07/29 10:34:14;;;;;;;3.10;2.67;;;;;;;30.29;32.08;96728.84;5068925;28;20186;-74
2023/07/29 10:36:42;;;;;;;4.07;3.47;;;;;;;30.59;32.81;96737.38;5068749;28;20247;-79
2023/07/29 10:39:10;;;;;;;4.63;3.93;;;;;;;30.79;31.87;96733.72;5050310;28;20193;-78
2023/07/29 10:41:58;;;;;;;2.63;2.33;;;;;;;30.86;31.48;96729.25;5069053;28;20798;-75
2023/07/29 10:44:43;;;;;;;5.07;3.07;;;;;;;30.98;31.69;96734.81;5068495;28;20661;-75
2023/07/29 10:47:13;;;;;;;4.57;3.17;;;;;;;31.09;32.25;96723.53;5050654;28;20297;-76
2023/07/29 10:49:41;;;;;;;4.33;2.70;;;;;;;31.41;30.95;96725.38;5050708;28;20292;-76
2023/07/29 10:52:13;;;;;;;4.83;2.80;;;;;;;31.53;31.16;96729.06;5050362;28;20193;-76
2023/07/29 10:54:45;;;;;;;3.57;3.00;;;;;;;31.49;31.54;96706.41;5068978;28;20208;-76
2023/07/29 10:57:30;;;;;;;3.30;2.90;;;;;;;31.60;30.91;96708.47;5049975;28;20189;-76
2023/07/29 10:59:58;;;;;;;2.40;2.20;;;;;;;31.62;30.61;96716.28;5050351;28;20243;-77
2023/07/29 11:02:34;;;;;;;2.80;2.60;;;;;;;31.54;30.86;96725.38;5050320;28;20590;-77
2023/07/29 11:05:07;;;;;;;2.97;2.47;;;;;;;31.29;30.75;96717.13;5068218;28;20181;-75
2023/07/29 11:07:48;;;;;;;5.18;2.55;;;;;;;31.43;30.77;96701.91;5068734;28;20217;-81
2023/07/29 11:10:16;;;;;;;2.80;2.50;;;;;;;31.29;31.69;96710.94;5049560;28;20229;-80
2023/07/29 11:12:51;;;;;;;3.43;2.60;;;;;;;31.38;31.29;96708.88;5050096;28;20233;-75
2023/07/29 11:15:24;;;;;;;5.35;2.60;;;;;;;31.65;30.93;96699.81;5067965;28;20209;-78
2023/07/29 11:18:01;;;;;;;3.45;2.38;;;;;;;31.79;30.94;96685.34;5050335;28;20288;-75
2023/07/29 11:20:30;;;;;;;2.88;2.38;;;;;;;31.84;30.96;96690.91;5069028;28;20185;-74
2023/07/29 11:23:00;;;;;;;2.72;2.35;;;;;;;32.00;29.73;96702.03;5067586;28;20244;-75
2023/07/29 11:25:29;;;;;;;2.58;2.38;;;;;;;32.21;30.23;96694.72;5082057;28;20192;-80
2023/07/29 11:27:58;;;;;;;3.92;2.47;;;;;;;32.07;29.67;96694.75;5069938;28;20192;-78
2023/07/29 11:30:27;;;;;;;3.83;2.22;;;;;;;32.10;29.11;96690.84;5088104;28;20189;-77
2023/07/29 11:32:55;;;;;;;4.03;2.65;;;;;;;31.92;29.97;96694.16;5070058;28;20556;-76
2023/07/29 11:35:24;;;;;;;2.50;2.30;;;;;;;31.74;29.83;96671.75;5069659;28;20201;-78
2023/07/29 11:37:54;;;;;;;2.40;2.20;;;;;;;31.60;29.50;96681.69;5088579;28;20200;-78
2023/07/29 11:40:22;;;;;;;3.22;1.88;;;;;;;31.46;30.02;96669.38;5069437;28;20188;-79
2023/07/29 11:42:51;;;;;;;2.83;2.55;;;;;;;31.50;30.09;96680.47;5088539;28;20212;-76
2023/07/29 11:45:20;;;;;;;2.20;2.00;;;;;;;31.62;30.38;96679.63;5087622;28;20246;-78
2023/07/29 11:47:47;;;;;;;3.85;1.90;;;;;;;31.63;29.86;96678.63;5069509;28;20335;-78
2023/07/29 11:50:15;;;;;;;2.42;2.22;;;;;;;31.65;30.28;96673.88;5069711;28;20195;-82
2023/07/29 11:52:46;;;;;;;3.50;2.67;;;;;;;32.05;29.89;96675.38;5087488;28;20196;-75
2023/07/29 11:55:14;;;;;;;2.15;2.00;;;;;;;31.72;30.10;96671.97;5088081;28;20185;-75
2023/07/29 11:57:43;;;;;;;3.60;2.13;;;;;;;31.77;29.54;96661.47;5087803;28;20234;-76